Time;durP1;ratioP1;P1;durP2;ratioP2;P2;SDS_P1;SDS_P2;PMS_P1;PMS_P2;Temp;Humidity;BMP_temperature;BMP_pressure;BME280_temperature;BME280_humidity;BME280_pressure;Samples;Min_cycle;Max_cycle;Signal;HPM_P1;HPM_P2
2022/05/15 00:01:03;;;;;;;;;;;11.30;99.90;;;;;;4987935;28;20455;-70
2022/05/15 00:03:29;;;;;;;12.98;3.22;;;11.30;99.90;;;;;;4987217;28;19918;-69
2022/05/15 00:05:57;;;;;;;12.02;3.55;;;11.30;99.90;;;;;;4987002;28;20598;-69
2022/05/15 00:08:25;;;;;;;11.73;3.60;;;11.20;99.90;;;;;;4969708;28;20461;-68
2022/05/15 00:10:52;;;;;;;10.88;3.40;;;11.20;99.90;;;;;;4987159;28;20030;-69
2022/05/15 00:13:19;;;;;;;11.77;4.10;;;11.20;99.90;;;;;;4986859;28;20121;-68
2022/05/15 00:15:45;;;;;;;9.80;4.15;;;11.10;99.90;;;;;;4987013;28;20334;-68
2022/05/15 00:18:11;;;;;;;11.15;3.42;;;11.00;99.90;;;;;;4986099;28;20027;-69
2022/05/15 00:20:39;;;;;;;8.27;3.13;;;10.90;99.90;;;;;;4979442;28;20039;-69
2022/05/15 00:23:06;;;;;;;12.95;3.40;;;10.90;99.90;;;;;;4986559;28;20065;-70
2022/05/15 00:25:33;;;;;;;7.13;3.50;;;10.90;99.90;;;;;;4969208;28;20416;-69
2022/05/15 00:27:59;;;;;;;15.27;3.67;;;10.80;99.90;;;;;;4986778;28;20019;-69
2022/05/15 00:30:25;;;;;;;8.63;3.75;;;10.70;99.90;;;;;;4986937;28;20019;-69
2022/05/15 00:32:51;;;;;;;11.73;3.15;;;10.70;99.90;;;;;;4985992;28;20056;-68
2022/05/15 00:35:17;;;;;;;9.70;3.92;;;10.70;99.90;;;;;;4986791;28;20034;-69
2022/05/15 00:37:43;;;;;;;13.48;3.97;;;10.60;99.90;;;;;;4986812;28;20082;-69
2022/05/15 00:40:11;;;;;;;18.05;3.75;;;10.60;99.90;;;;;;4969106;28;20042;-70
2022/05/15 00:42:36;;;;;;;13.00;4.22;;;10.50;99.90;;;;;;4986530;28;20449;-70
2022/05/15 00:45:05;;;;;;;4.85;3.00;;;10.50;99.90;;;;;;4986653;28;20066;-69
2022/05/15 00:47:31;;;;;;;13.73;3.63;;;10.40;99.90;;;;;;4978776;28;20034;-69
2022/05/15 00:49:57;;;;;;;7.40;3.42;;;10.40;99.90;;;;;;4984225;28;20126;-69
2022/05/15 00:52:28;;;;;;;11.55;3.25;;;10.40;99.90;;;;;;4984360;28;20495;-69
2022/05/15 00:55:02;;;;;;;9.07;3.60;;;10.30;99.90;;;;;;4986072;28;20030;-70
2022/05/15 00:57:39;;;;;;;9.57;3.60;;;10.30;99.90;;;;;;4986178;28;20054;-69
2022/05/15 01:00:09;;;;;;;7.18;3.30;;;10.30;99.90;;;;;;4985785;28;20158;-70
2022/05/15 01:02:42;;;;;;;7.03;3.08;;;10.30;99.90;;;;;;4985431;28;20034;-70
2022/05/15 01:05:11;;;;;;;17.52;4.30;;;10.30;99.90;;;;;;4986315;28;20054;-69
2022/05/15 01:07:37;;;;;;;14.73;3.90;;;10.20;99.90;;;;;;4985897;28;20062;-69
2022/05/15 01:10:05;;;;;;;13.40;3.67;;;10.20;99.90;;;;;;4986509;28;20408;-68
2022/05/15 01:12:33;;;;;;;19.52;3.38;;;10.20;99.90;;;;;;4986273;28;20058;-69
2022/05/15 01:14:59;;;;;;;7.65;3.47;;;10.20;99.90;;;;;;4985872;28;20022;-69
2022/05/15 01:17:25;;;;;;;12.90;4.47;;;10.10;99.90;;;;;;4986126;28;20651;-69
2022/05/15 01:20:01;;;;;;;8.55;3.53;;;10.10;99.90;;;;;;4985846;28;20030;-68
2022/05/15 01:22:26;;;;;;;9.45;3.88;;;10.00;99.90;;;;;;4985695;28;20669;-69
2022/05/15 01:24:52;;;;;;;9.05;3.53;;;10.00;99.90;;;;;;4985995;28;20066;-69
2022/05/15 01:27:17;;;;;;;12.70;3.92;;;10.00;99.90;;;;;;4985949;28;20035;-69
2022/05/15 01:29:46;;;;;;;19.75;4.50;;;10.00;99.90;;;;;;4985680;28;20035;-69
2022/05/15 01:32:13;;;;;;;13.07;4.07;;;10.00;99.90;;;;;;4984815;28;20026;-69
2022/05/15 01:34:40;;;;;;;14.48;3.90;;;10.00;99.90;;;;;;4968638;28;20118;-69
2022/05/15 01:37:08;;;;;;;12.95;3.92;;;9.90;99.90;;;;;;4985623;28;20030;-70
2022/05/15 01:39:34;;;;;;;21.13;4.55;;;9.90;99.90;;;;;;4985851;28;20035;-69
2022/05/15 01:42:02;;;;;;;11.60;3.83;;;9.90;99.90;;;;;;4985833;28;20037;-69
2022/05/15 01:44:27;;;;;;;19.25;4.65;;;9.90;99.90;;;;;;4985610;28;20115;-68
2022/05/15 01:46:54;;;;;;;11.65;4.22;;;9.90;99.90;;;;;;4989280;28;20030;-70
2022/05/15 01:49:19;;;;;;;5.72;3.10;;;9.90;99.90;;;;;;4989836;28;20034;-69
2022/05/15 01:51:46;;;;;;;6.30;2.60;;;9.90;99.90;;;;;;4989709;28;20023;-68
2022/05/15 01:54:12;;;;;;;6.78;2.83;;;9.90;99.90;;;;;;4989479;28;20023;-69
2022/05/15 01:56:40;;;;;;;12.48;3.83;;;9.80;99.90;;;;;;4989646;28;20027;-70
2022/05/15 01:59:07;;;;;;;12.38;4.50;;;9.80;99.90;;;;;;4989523;28;20041;-69
2022/05/15 02:01:33;;;;;;;10.68;3.63;;;9.80;99.90;;;;;;4989920;28;20019;-70
2022/05/15 02:03:58;;;;;;;5.72;3.22;;;9.80;99.90;;;;;;4989021;28;20038;-69
2022/05/15 02:06:24;;;;;;;10.57;3.70;;;9.80;99.90;;;;;;4989660;28;20035;-69
2022/05/15 02:08:50;;;;;;;9.82;4.43;;;9.80;99.90;;;;;;4989490;28;20476;-68
2022/05/15 02:11:15;;;;;;;7.38;3.15;;;9.70;99.90;;;;;;4989142;28;20023;-69
2022/05/15 02:13:41;;;;;;;10.27;3.50;;;9.70;99.90;;;;;;4989378;28;20054;-69
2022/05/15 02:16:07;;;;;;;14.20;4.25;;;9.70;99.90;;;;;;4989346;28;20035;-69
2022/05/15 02:18:33;;;;;;;9.32;3.60;;;9.70;99.90;;;;;;4988921;28;20023;-71
2022/05/15 02:20:59;;;;;;;13.02;4.28;;;9.60;99.90;;;;;;4989190;28;20451;-70
2022/05/15 02:23:26;;;;;;;22.50;4.78;;;9.60;99.90;;;;;;4988772;28;20058;-69
2022/05/15 02:25:52;;;;;;;13.65;3.60;;;9.60;99.90;;;;;;4988656;28;20039;-70
2022/05/15 02:28:18;;;;;;;9.23;4.00;;;9.60;99.90;;;;;;4989174;28;20035;-69
2022/05/15 02:30:44;;;;;;;9.88;3.63;;;9.50;99.90;;;;;;4988854;28;20059;-68
2022/05/15 02:33:09;;;;;;;9.93;3.75;;;9.50;99.90;;;;;;4989095;28;20023;-68
2022/05/15 02:35:35;;;;;;;7.00;3.75;;;9.50;99.90;;;;;;4989170;28;20030;-69
2022/05/15 02:38:01;;;;;;;9.77;3.40;;;9.50;99.90;;;;;;4988952;28;20090;-68
2022/05/15 02:40:27;;;;;;;7.22;3.72;;;9.40;99.90;;;;;;4988878;28;20082;-69
2022/05/15 02:42:55;;;;;;;6.28;3.63;;;9.40;99.90;;;;;;4988912;28;20118;-69
2022/05/15 02:45:21;;;;;;;9.73;3.28;;;9.40;99.90;;;;;;4988414;28;20042;-70
2022/05/15 02:47:47;;;;;;;9.63;3.85;;;9.30;99.90;;;;;;4988410;28;20043;-70
2022/05/15 02:52:57;;;;;;;;;;;9.30;99.90;;;;;;4988974;28;20056;-69
2022/05/15 02:55:24;;;;;;;9.20;3.38;;;9.30;99.90;;;;;;4988619;28;20379;-69
2022/05/15 02:57:50;;;;;;;7.55;3.47;;;9.30;99.90;;;;;;4986995;28;20023;-69
2022/05/15 03:00:18;;;;;;;11.30;3.95;;;9.20;99.90;;;;;;4986714;28;20118;-69
2022/05/15 03:02:44;;;;;;;11.10;4.13;;;9.20;99.90;;;;;;4988650;28;20030;-69
2022/05/15 03:05:11;;;;;;;13.23;4.35;;;9.20;99.90;;;;;;4988307;28;20062;-71
2022/05/15 03:07:37;;;;;;;15.70;6.00;;;9.10;99.90;;;;;;4988231;28;20101;-70
2022/05/15 03:10:04;;;;;;;9.50;4.28;;;9.10;99.90;;;;;;4988484;28;20039;-69
2022/05/15 03:12:30;;;;;;;8.88;4.22;;;9.10;99.90;;;;;;4987955;28;20031;-67
2022/05/15 03:14:56;;;;;;;11.90;4.65;;;9.10;99.90;;;;;;4988446;28;20515;-68
2022/05/15 03:17:21;;;;;;;9.55;3.45;;;9.00;99.90;;;;;;4987995;28;20107;-68
2022/05/15 03:19:47;;;;;;;8.07;3.78;;;9.00;99.90;;;;;;4987898;28;20039;-69
2022/05/15 03:22:13;;;;;;;5.32;3.10;;;8.90;99.90;;;;;;4988160;28;20035;-69
2022/05/15 03:24:39;;;;;;;11.10;3.63;;;9.00;99.90;;;;;;4987942;28;20496;-71
2022/05/15 03:27:05;;;;;;;5.82;3.03;;;9.00;99.90;;;;;;4988012;28;20399;-70
2022/05/15 03:29:30;;;;;;;15.20;4.28;;;8.90;99.90;;;;;;4987770;28;20039;-71
2022/05/15 03:31:57;;;;;;;14.45;4.25;;;8.90;99.90;;;;;;4988060;28;20458;-70
2022/05/15 03:34:23;;;;;;;6.38;3.45;;;8.90;99.90;;;;;;4987642;28;20038;-69
2022/05/15 03:36:51;;;;;;;17.85;3.55;;;8.90;99.90;;;;;;4987814;28;20123;-70
2022/05/15 03:39:19;;;;;;;15.90;3.95;;;8.80;99.90;;;;;;4987682;28;20031;-70
2022/05/15 03:41:49;;;;;;;9.73;3.75;;;8.80;99.90;;;;;;4976362;28;20062;-69
2022/05/15 03:44:15;;;;;;;12.35;3.33;;;8.80;99.90;;;;;;4968238;28;20036;-69
2022/05/15 03:46:42;;;;;;;8.02;4.05;;;8.80;99.90;;;;;;4968282;28;20027;-69
2022/05/15 03:49:08;;;;;;;8.57;3.53;;;8.80;99.90;;;;;;4981174;28;20082;-70
2022/05/15 03:51:35;;;;;;;9.15;3.10;;;8.80;99.90;;;;;;4969719;28;20027;-70
2022/05/15 03:54:01;;;;;;;9.70;3.67;;;8.90;99.90;;;;;;4987153;28;20479;-70
2022/05/15 03:59:12;;;;;;;5.30;2.95;;;8.90;99.90;;;;;;4987579;28;20041;-68
2022/05/15 04:01:38;;;;;;;3.60;2.60;;;8.90;99.90;;;;;;4987281;28;20383;-69
2022/05/15 04:04:04;;;;;;;8.40;2.63;;;8.90;99.90;;;;;;4971914;28;20090;-67
2022/05/15 04:06:30;;;;;;;5.55;2.72;;;8.90;99.90;;;;;;4968027;28;20044;-69
2022/05/15 04:08:56;;;;;;;12.38;3.95;;;8.80;99.90;;;;;;4966973;28;20571;-69
2022/05/15 04:11:25;;;;;;;7.25;3.85;;;8.90;99.90;;;;;;4970726;28;20054;-70
2022/05/15 04:13:50;;;;;;;17.60;4.28;;;8.90;99.90;;;;;;4969352;28;20028;-69
2022/05/15 04:16:16;;;;;;;7.85;3.13;;;8.80;99.90;;;;;;4971560;28;20037;-68
2022/05/15 04:18:43;;;;;;;15.63;3.92;;;8.80;99.90;;;;;;4968407;28;20031;-69
2022/05/15 04:21:08;;;;;;;4.85;3.00;;;8.90;99.90;;;;;;4985601;28;20035;-69
2022/05/15 04:23:36;;;;;;;10.70;3.72;;;8.90;99.90;;;;;;4985526;28;20046;-70
2022/05/15 04:26:02;;;;;;;7.90;4.15;;;9.00;99.90;;;;;;4986348;28;20034;-70
2022/05/15 04:28:28;;;;;;;10.38;4.32;;;9.00;99.90;;;;;;4985825;28;20038;-67
2022/05/15 04:30:53;;;;;;;13.25;3.50;;;9.00;99.90;;;;;;4985801;28;20864;-69
2022/05/15 04:33:19;;;;;;;7.57;2.97;;;9.00;99.90;;;;;;4968251;28;20054;-68
2022/05/15 04:35:45;;;;;;;4.60;2.33;;;9.10;99.90;;;;;;4985602;28;20027;-69
2022/05/15 04:38:11;;;;;;;5.30;2.50;;;9.10;99.90;;;;;;4986008;28;20046;-71
2022/05/15 04:40:37;;;;;;;4.95;2.28;;;9.10;99.90;;;;;;4976979;28;20039;-70
2022/05/15 04:43:04;;;;;;;5.63;2.50;;;9.00;99.90;;;;;;4972525;28;20035;-68
2022/05/15 04:45:30;;;;;;;6.68;2.47;;;9.00;99.90;;;;;;4966684;28;20043;-69
2022/05/15 04:47:56;;;;;;;3.88;2.35;;;9.00;99.90;;;;;;4966521;28;20033;-68
2022/05/15 04:50:22;;;;;;;4.93;2.45;;;9.00;99.90;;;;;;4968440;28;20031;-68
2022/05/15 04:52:48;;;;;;;14.00;4.22;;;9.10;99.90;;;;;;4974732;28;20031;-69
2022/05/15 04:55:14;;;;;;;6.82;3.47;;;9.10;99.90;;;;;;4966012;28;20064;-68
2022/05/15 04:57:40;;;;;;;16.23;4.55;;;9.20;99.90;;;;;;4971561;28;20031;-71
2022/05/15 05:00:12;;;;;;;8.57;3.67;;;9.20;99.90;;;;;;4975049;28;20050;-70
2022/05/15 05:02:38;;;;;;;13.57;4.65;;;9.30;99.90;;;;;;4980575;28;20035;-69
2022/05/15 05:05:04;;;;;;;16.27;4.85;;;9.30;99.90;;;;;;4983349;28;20046;-69
2022/05/15 05:07:32;;;;;;;11.15;4.43;;;9.40;99.90;;;;;;4976648;28;20046;-70
2022/05/15 05:09:57;;;;;;;8.07;4.00;;;9.40;99.90;;;;;;4985558;28;20109;-68
2022/05/15 05:12:23;;;;;;;6.90;3.75;;;9.40;99.90;;;;;;4979286;28;20106;-69
2022/05/15 05:14:49;;;;;;;18.23;5.32;;;9.50;99.90;;;;;;4972910;28;20031;-69
2022/05/15 05:17:15;;;;;;;17.02;4.72;;;9.50;99.90;;;;;;4947832;28;20030;-69
2022/05/15 05:19:42;;;;;;;8.10;4.05;;;9.50;99.90;;;;;;4982675;28;20126;-70
2022/05/15 05:22:09;;;;;;;8.95;4.03;;;9.60;99.90;;;;;;4982338;28;20034;-69
2022/05/15 05:24:35;;;;;;;6.70;2.95;;;9.60;99.90;;;;;;4974960;28;20558;-70
2022/05/15 05:27:00;;;;;;;13.90;3.42;;;9.70;99.90;;;;;;4985442;28;20042;-69
2022/05/15 05:29:26;;;;;;;8.80;3.40;;;9.70;99.90;;;;;;4985730;28;20019;-69
2022/05/15 05:31:52;;;;;;;7.82;3.70;;;9.80;99.90;;;;;;4984264;28;20066;-70
2022/05/15 05:34:18;;;;;;;16.90;3.47;;;9.80;99.90;;;;;;4980526;28;20395;-68
2022/05/15 05:36:43;;;;;;;7.68;3.30;;;9.90;99.90;;;;;;4985699;28;20098;-68
2022/05/15 05:39:09;;;;;;;7.68;2.33;;;9.90;99.90;;;;;;4984979;28;20026;-69
2022/05/15 05:41:35;;;;;;;4.82;2.50;;;10.00;99.90;;;;;;4985626;28;20074;-70
2022/05/15 05:44:00;;;;;;;4.93;2.88;;;10.00;99.90;;;;;;4985871;28;20030;-68
2022/05/15 05:46:27;;;;;;;5.30;2.70;;;10.10;99.90;;;;;;4977490;28;20034;-69
2022/05/15 05:48:54;;;;;;;4.88;2.65;;;10.10;99.90;;;;;;4972003;28;20030;-68
2022/05/15 05:51:20;;;;;;;9.88;3.10;;;10.10;99.90;;;;;;4966875;28;20022;-69
2022/05/15 05:53:50;;;;;;;8.10;3.67;;;10.20;99.90;;;;;;4978667;28;20035;-70
2022/05/15 05:56:16;;;;;;;4.70;2.75;;;10.30;99.90;;;;;;4974621;28;20031;-69
2022/05/15 05:58:41;;;;;;;8.60;3.10;;;10.30;99.90;;;;;;4948641;28;20078;-68
2022/05/15 06:01:08;;;;;;;4.70;2.85;;;10.40;99.90;;;;;;4965908;28;20077;-69
2022/05/15 06:06:19;;;;;;;12.15;3.50;;;10.40;99.90;;;;;;4966169;28;20054;-68
2022/05/15 06:08:44;;;;;;;13.02;4.22;;;10.50;99.90;;;;;;4966085;28;20038;-68
2022/05/15 06:11:12;;;;;;;7.90;3.53;;;10.60;99.90;;;;;;4966225;28;20454;-68
2022/05/15 06:13:39;;;;;;;13.98;3.85;;;10.70;99.90;;;;;;4966072;29;20054;-68
2022/05/15 06:16:06;;;;;;;12.60;4.35;;;10.80;99.90;;;;;;4966448;28;20034;-68
2022/05/15 06:18:32;;;;;;;11.23;4.28;;;10.80;99.90;;;;;;4951634;28;20035;-67
2022/05/15 06:20:57;;;;;;;7.80;3.70;;;10.90;99.90;;;;;;4966481;28;20046;-69
2022/05/15 06:23:23;;;;;;;9.05;3.75;;;11.00;99.90;;;;;;4984578;28;20055;-68
2022/05/15 06:25:49;;;;;;;10.90;4.95;;;11.00;99.90;;;;;;4967738;28;20094;-69
2022/05/15 06:28:15;;;;;;;13.18;3.80;;;11.10;99.90;;;;;;4980689;28;20031;-68
2022/05/15 06:30:40;;;;;;;8.13;3.90;;;11.20;99.90;;;;;;4974470;28;20431;-69
2022/05/15 06:33:08;;;;;;;8.20;4.22;;;11.30;99.90;;;;;;4977890;28;20026;-70
2022/05/15 06:35:35;;;;;;;9.20;4.18;;;11.40;99.90;;;;;;4987993;28;20086;-68
2022/05/15 06:38:04;;;;;;;7.85;4.25;;;11.50;99.90;;;;;;4986782;28;20027;-69
2022/05/15 06:40:30;;;;;;;13.48;5.15;;;11.60;99.90;;;;;;4988533;28;20033;-69
2022/05/15 06:42:57;;;;;;;10.88;4.85;;;11.60;99.90;;;;;;4970169;28;20019;-68
2022/05/15 06:45:23;;;;;;;9.93;4.75;;;11.70;99.90;;;;;;4980393;28;20121;-70
2022/05/15 06:47:49;;;;;;;12.90;6.00;;;11.80;99.90;;;;;;4978324;28;20042;-68
2022/05/15 06:50:15;;;;;;;18.08;5.40;;;11.80;99.90;;;;;;4987575;28;20039;-69
2022/05/15 06:52:40;;;;;;;12.82;5.00;;;11.90;99.90;;;;;;4984931;28;20027;-68
2022/05/15 06:55:10;;;;;;;10.85;4.93;;;12.00;99.90;;;;;;4986465;28;20026;-69
2022/05/15 06:57:35;;;;;;;12.63;4.97;;;12.10;99.90;;;;;;4984716;28;20066;-69
2022/05/15 07:00:10;;;;;;;14.18;5.43;;;12.10;99.90;;;;;;4987001;28;20085;-68
2022/05/15 07:02:36;;;;;;;7.18;4.82;;;12.20;99.90;;;;;;4987676;28;20026;-69
2022/05/15 07:05:04;;;;;;;20.92;6.50;;;12.30;99.90;;;;;;4987769;28;20086;-68
2022/05/15 07:07:30;;;;;;;16.55;5.55;;;12.30;99.90;;;;;;4988101;28;20489;-69
2022/05/15 07:09:56;;;;;;;16.85;5.82;;;12.40;99.90;;;;;;4988294;28;20466;-68
2022/05/15 07:12:23;;;;;;;12.95;4.65;;;12.50;99.90;;;;;;4988686;28;20061;-68
2022/05/15 07:14:48;;;;;;;12.68;6.15;;;12.60;99.90;;;;;;4980639;28;20089;-68
2022/05/15 07:17:14;;;;;;;14.00;5.38;;;12.70;99.90;;;;;;4969079;28;20023;-67
2022/05/15 07:19:40;;;;;;;9.75;4.75;;;12.80;99.90;;;;;;4951783;29;20468;-67
2022/05/15 07:22:06;;;;;;;20.42;4.97;;;12.90;99.90;;;;;;4968684;28;20046;-68
2022/05/15 07:24:31;;;;;;;23.95;4.95;;;13.00;99.90;;;;;;4972105;28;20059;-67
2022/05/15 07:26:57;;;;;;;9.55;4.53;;;13.10;99.90;;;;;;4980442;28;20118;-69
2022/05/15 07:29:24;;;;;;;12.82;4.75;;;13.20;99.90;;;;;;4987745;28;20023;-69
2022/05/15 07:31:51;;;;;;;9.07;4.43;;;13.20;99.90;;;;;;4987027;28;20022;-70
2022/05/15 07:34:17;;;;;;;11.20;3.63;;;13.30;99.90;;;;;;4988197;28;20027;-68
2022/05/15 07:36:43;;;;;;;11.48;3.85;;;13.40;99.90;;;;;;4987639;28;20034;-68
2022/05/15 07:39:09;;;;;;;9.88;4.15;;;13.50;99.90;;;;;;4987721;28;20026;-71
2022/05/15 07:41:34;;;;;;;7.93;3.60;;;13.60;99.90;;;;;;4979683;28;20039;-68
2022/05/15 07:44:00;;;;;;;9.98;3.35;;;13.70;99.90;;;;;;4975276;28;20031;-69
2022/05/15 07:46:26;;;;;;;15.23;3.25;;;13.80;99.90;;;;;;4950905;29;20039;-68
2022/05/15 07:48:54;;;;;;;8.85;3.22;;;14.00;99.90;;;;;;4968392;28;20038;-68
2022/05/15 07:51:20;;;;;;;7.55;3.15;;;14.10;99.90;;;;;;4967946;28;20019;-68
2022/05/15 07:53:46;;;;;;;5.75;2.58;;;14.20;99.90;;;;;;4968084;28;20070;-68
2022/05/15 07:56:13;;;;;;;6.15;3.10;;;14.30;99.90;;;;;;4969328;28;20420;-68
2022/05/15 07:58:39;;;;;;;7.43;3.05;;;14.40;99.90;;;;;;4979940;28;20036;-68
2022/05/15 08:01:06;;;;;;;9.18;2.10;;;14.60;99.90;;;;;;4980506;28;20456;-69
2022/05/15 08:03:37;;;;;;;8.25;2.38;;;14.60;99.90;;;;;;4970436;28;20027;-68
2022/05/15 08:08:49;;;;;;;3.30;2.15;;;14.90;99.90;;;;;;4986886;28;20050;-69
2022/05/15 08:11:15;;;;;;;8.77;2.60;;;15.00;99.90;;;;;;4986531;28;20066;-70
2022/05/15 08:13:43;;;;;;;12.18;2.70;;;15.10;99.90;;;;;;4976280;28;20075;-70
2022/05/15 08:16:10;;;;;;;10.38;2.97;;;15.20;99.90;;;;;;4986496;28;20034;-70
2022/05/15 08:24:08;;;;;;;16.13;3.40;;;15.40;99.90;;;;;;4985614;28;20120;-69
2022/05/15 08:26:35;;;;;;;7.38;2.78;;;15.50;99.90;;;;;;4981161;28;20059;-71
2022/05/15 08:29:00;;;;;;;4.45;1.98;;;15.60;99.90;;;;;;4965030;28;20472;-68
2022/05/15 08:31:31;;;;;;;4.65;2.50;;;15.50;99.90;;;;;;4967982;28;20058;-69
2022/05/15 08:33:57;;;;;;;6.90;3.13;;;15.70;99.90;;;;;;4979685;28;20034;-70
2022/05/15 08:36:23;;;;;;;13.18;2.30;;;15.80;99.90;;;;;;4962403;28;20041;-68
2022/05/15 08:38:49;;;;;;;8.90;2.90;;;15.90;99.90;;;;;;4980317;28;20480;-68
2022/05/15 08:41:21;;;;;;;3.75;2.05;;;15.90;99.90;;;;;;4979398;28;20027;-69
2022/05/15 08:43:51;;;;;;;8.15;2.40;;;16.10;99.90;;;;;;4982364;28;20023;-68
2022/05/15 08:46:29;;;;;;;11.35;3.10;;;16.20;99.90;;;;;;4982344;28;20043;-69
2022/05/15 08:49:05;;;;;;;6.60;1.48;;;16.40;99.90;;;;;;4977675;28;20046;-70
2022/05/15 08:51:31;;;;;;;3.72;2.03;;;16.50;99.90;;;;;;4986513;28;20033;-69
2022/05/15 08:54:00;;;;;;;9.82;2.30;;;16.70;99.90;;;;;;4981913;28;20031;-68
2022/05/15 08:56:26;;;;;;;3.75;1.92;;;17.00;99.90;;;;;;4978938;28;20066;-70
2022/05/15 08:58:56;;;;;;;4.47;1.65;;;17.00;99.90;;;;;;4974875;28;20058;-68
2022/05/15 09:01:25;;;;;;;11.50;2.13;;;17.10;99.90;;;;;;4972818;28;20372;-68
2022/05/15 09:03:52;;;;;;;4.75;2.20;;;17.20;99.90;;;;;;4985276;28;20045;-69
2022/05/15 09:06:34;;;;;;;3.97;1.73;;;17.30;99.90;;;;;;4985454;28;20038;-70
2022/05/15 09:09:25;;;;;;;5.40;2.03;;;17.40;99.90;;;;;;4975352;28;20117;-68
2022/05/15 09:11:52;;;;;;;3.22;1.73;;;17.50;99.90;;;;;;4970219;28;20057;-70
2022/05/15 09:14:39;;;;;;;4.35;1.70;;;17.50;99.90;;;;;;4984821;28;20073;-71
2022/05/15 09:17:20;;;;;;;6.05;1.58;;;17.60;99.90;;;;;;4985211;28;20035;-70
2022/05/15 09:19:54;;;;;;;2.13;1.20;;;17.60;99.90;;;;;;4979892;28;20038;-68
2022/05/15 09:22:23;;;;;;;8.25;1.83;;;17.60;99.90;;;;;;4978245;28;20038;-69
2022/05/15 09:24:51;;;;;;;6.28;1.67;;;17.70;99.90;;;;;;4970303;28;20054;-70
2022/05/15 09:27:25;;;;;;;1.13;1.00;;;17.90;99.90;;;;;;4966276;28;20082;-70
2022/05/15 09:29:59;;;;;;;6.22;1.67;;;18.00;99.90;;;;;;4965826;28;20027;-68
2022/05/15 09:32:36;;;;;;;5.13;2.05;;;18.10;99.90;;;;;;4976265;28;20280;-69
2022/05/15 09:35:02;;;;;;;6.22;1.48;;;18.20;99.90;;;;;;4982896;28;20037;-69
2022/05/15 09:40:41;;;;;;;9.63;2.70;;;18.30;99.90;;;;;;4982314;28;20089;-69
2022/05/15 09:43:32;;;;;;;2.72;1.55;;;18.30;99.90;;;;;;4972305;28;20474;-68
2022/05/15 09:46:13;;;;;;;3.30;1.30;;;18.30;99.90;;;;;;4978798;28;20093;-69
2022/05/15 09:48:50;;;;;;;2.03;1.38;;;18.30;99.90;;;;;;4985395;28;20026;-69
2022/05/15 09:51:42;;;;;;;2.15;1.10;;;18.30;99.90;;;;;;4985581;28;20074;-69
2022/05/15 09:54:10;;;;;;;1.70;0.77;;;18.40;99.90;;;;;;4984321;28;20019;-68
2022/05/15 09:56:37;;;;;;;4.30;1.40;;;18.50;99.90;;;;;;4985484;28;20090;-68
2022/05/15 09:59:09;;;;;;;12.32;2.05;;;18.40;99.90;;;;;;4985822;28;20031;-68
2022/05/15 10:01:40;;;;;;;8.43;1.98;;;18.40;99.90;;;;;;4965128;28;20106;-68
2022/05/15 10:04:24;;;;;;;3.58;1.08;;;18.50;99.90;;;;;;4964854;28;20086;-69
2022/05/15 10:06:57;;;;;;;3.37;1.50;;;18.50;99.90;;;;;;4978255;28;20375;-69
2022/05/15 10:09:31;;;;;;;7.85;1.10;;;18.60;99.90;;;;;;4976004;28;20614;-70
2022/05/15 10:12:13;;;;;;;1.73;1.20;;;18.80;99.90;;;;;;4980792;28;20053;-70
2022/05/15 10:14:45;;;;;;;2.40;1.30;;;18.80;99.90;;;;;;4977800;28;20023;-70
2022/05/15 10:17:12;;;;;;;4.18;1.92;;;18.90;99.90;;;;;;4977963;28;20066;-68
2022/05/15 10:19:51;;;;;;;5.80;1.00;;;19.10;99.90;;;;;;4985582;28;20080;-70
2022/05/15 10:22:30;;;;;;;6.85;2.28;;;19.10;99.90;;;;;;4984483;28;20103;-68
2022/05/15 10:24:59;;;;;;;3.95;1.23;;;19.20;99.90;;;;;;4975555;28;20042;-72
2022/05/15 10:27:31;;;;;;;2.95;1.27;;;19.20;99.90;;;;;;4977611;28;20027;-70
2022/05/15 10:30:11;;;;;;;8.25;1.92;;;19.30;99.90;;;;;;4971691;28;20027;-69
2022/05/15 10:32:41;;;;;;;3.45;1.35;;;19.30;99.90;;;;;;4985658;28;20030;-69
2022/05/15 10:35:14;;;;;;;1.52;0.98;;;19.30;99.90;;;;;;4976347;28;20027;-70
2022/05/15 10:38:05;;;;;;;5.28;0.82;;;19.40;99.90;;;;;;4987236;28;20030;-71
2022/05/15 10:40:49;;;;;;;2.13;0.93;;;19.60;99.90;;;;;;4985210;28;20035;-69
2022/05/15 10:43:53;;;;;;;1.30;0.80;;;19.80;99.90;;;;;;4986270;28;20035;-69
2022/05/15 10:46:42;;;;;;;2.95;1.20;;;20.10;99.90;;;;;;4985754;28;20051;-70
2022/05/15 10:49:40;;;;;;;3.50;1.30;;;20.30;99.90;;;;;;4985463;28;20071;-71
2022/05/15 10:52:20;;;;;;;3.80;1.23;;;20.40;99.90;;;;;;4959570;28;20042;-70
2022/05/15 10:57:51;;;;;;;3.50;1.27;;;20.60;99.90;;;;;;4968988;28;20062;-69
2022/05/15 11:00:49;;;;;;;4.13;1.38;;;20.70;99.90;;;;;;4981518;28;20030;-68
2022/05/15 11:03:23;;;;;;;5.90;1.50;;;20.70;99.90;;;;;;4982716;28;20393;-68
2022/05/15 11:06:07;;;;;;;1.17;0.75;;;20.80;99.90;;;;;;4979421;28;20038;-69
2022/05/15 11:08:47;;;;;;;0.98;0.88;;;20.80;99.90;;;;;;4987266;28;20047;-69
2022/05/15 11:11:28;;;;;;;2.03;0.88;;;20.80;99.90;;;;;;4987815;28;20033;-70
2022/05/15 11:14:13;;;;;;;1.63;0.75;;;20.90;99.90;;;;;;4987435;28;20030;-69
2022/05/15 11:16:40;;;;;;;1.00;0.80;;;21.00;99.90;;;;;;4987239;28;20041;-71
2022/05/15 11:19:20;;;;;;;4.22;1.38;;;21.20;99.90;;;;;;4984892;28;20027;-71
2022/05/15 11:21:54;;;;;;;2.40;1.08;;;21.30;99.90;;;;;;4980528;28;20030;-68
2022/05/15 11:24:54;;;;;;;16.10;1.58;;;21.50;99.90;;;;;;4977195;28;20054;-70
2022/05/15 11:27:49;;;;;;;2.58;1.00;;;21.70;99.90;;;;;;4977806;28;20074;-69
2022/05/15 11:30:41;;;;;;;3.08;1.42;;;21.70;99.90;;;;;;4965774;28;20107;-68
2022/05/15 11:33:10;;;;;;;2.75;1.23;;;21.90;99.90;;;;;;4987935;28;20545;-69
2022/05/15 11:35:41;;;;;;;3.85;1.33;;;21.90;99.90;;;;;;4987842;28;20034;-70
2022/05/15 11:38:22;;;;;;;5.63;0.90;;;21.90;99.90;;;;;;4988313;28;20030;-69
2022/05/15 11:40:50;;;;;;;3.95;0.75;;;22.00;99.90;;;;;;4987487;28;20030;-69
2022/05/15 11:43:28;;;;;;;1.98;0.68;;;22.10;99.90;;;;;;4983543;28;20107;-68
2022/05/15 11:45:59;;;;;;;5.00;1.08;;;22.30;99.90;;;;;;4976798;28;20042;-67
2022/05/15 11:48:56;;;;;;;1.63;1.02;;;22.40;99.90;;;;;;4987344;28;20038;-69
2022/05/15 11:51:26;;;;;;;4.38;0.77;;;22.50;99.90;;;;;;4950181;28;20054;-69
2022/05/15 11:54:10;;;;;;;1.05;0.70;;;22.50;99.90;;;;;;4975291;28;20103;-72
2022/05/15 11:56:39;;;;;;;6.47;0.90;;;22.60;99.90;;;;;;4973436;28;20031;-69
2022/05/15 11:59:14;;;;;;;0.98;0.82;;;22.70;99.90;;;;;;4976874;28;20031;-71
2022/05/15 12:01:45;;;;;;;2.13;1.10;;;22.60;99.90;;;;;;4973920;28;20040;-70
2022/05/15 12:04:41;;;;;;;4.82;1.02;;;22.50;99.90;;;;;;4982390;28;20034;-69
2022/05/15 12:07:06;;;;;;;3.22;1.08;;;22.50;99.90;;;;;;4974037;28;20065;-69
2022/05/15 12:09:41;;;;;;;2.28;0.93;;;22.60;99.90;;;;;;4975796;28;20039;-69
2022/05/15 12:12:23;;;;;;;3.97;1.38;;;22.80;99.90;;;;;;4959905;28;20038;-69
2022/05/15 12:15:13;;;;;;;2.05;0.70;;;22.80;99.90;;;;;;4978024;28;20026;-68
2022/05/15 12:17:42;;;;;;;9.38;1.40;;;23.00;99.90;;;;;;4980635;28;20027;-70
2022/05/15 12:20:31;;;;;;;9.75;0.98;;;23.20;99.90;;;;;;4980501;28;20083;-69
2022/05/15 12:23:18;;;;;;;3.88;1.25;;;23.40;99.90;;;;;;4968289;28;20094;-71
2022/05/15 12:25:56;;;;;;;5.00;1.25;;;23.50;99.90;;;;;;4980837;28;20039;-70
2022/05/15 12:28:58;;;;;;;1.17;0.88;;;23.30;99.90;;;;;;4973594;28;20042;-70
2022/05/15 12:31:37;;;;;;;5.88;1.20;;;23.40;99.90;;;;;;4982326;28;20782;-69
2022/05/15 12:34:27;;;;;;;2.97;1.30;;;23.40;99.90;;;;;;4987090;28;20027;-72
2022/05/15 12:37:02;;;;;;;3.85;1.13;;;23.50;99.90;;;;;;4985686;28;20030;-68
2022/05/15 12:39:32;;;;;;;4.07;1.50;;;23.50;99.90;;;;;;4986853;28;20050;-69
2022/05/15 12:42:13;;;;;;;2.95;1.35;;;23.60;99.90;;;;;;4986966;28;20026;-70
2022/05/15 12:44:39;;;;;;;2.40;0.70;;;23.80;99.90;;;;;;4985290;28;20035;-69
2022/05/15 12:47:09;;;;;;;1.67;0.90;;;23.90;99.90;;;;;;4985957;28;20041;-70
2022/05/15 12:49:42;;;;;;;5.07;1.10;;;24.10;99.90;;;;;;4986894;28;20038;-70
2022/05/15 12:52:25;;;;;;;2.97;1.50;;;24.20;99.90;;;;;;4985377;28;20058;-67
2022/05/15 12:55:07;;;;;;;1.98;0.75;;;24.30;99.90;;;;;;4994587;28;20026;-70
2022/05/15 12:57:46;;;;;;;1.88;0.70;;;24.40;99.90;;;;;;4987858;28;20026;-67
2022/05/15 13:00:15;;;;;;;2.38;1.17;;;24.50;99.90;;;;;;4975971;28;20026;-67
2022/05/15 13:02:41;;;;;;;2.63;1.10;;;24.70;99.90;;;;;;4980942;28;20073;-69
2022/05/15 13:05:27;;;;;;;1.38;0.60;;;24.80;99.90;;;;;;4983490;28;20065;-70
2022/05/15 13:07:57;;;;;;;1.80;0.80;;;25.00;99.90;;;;;;4983811;28;20031;-70
2022/05/15 13:10:26;;;;;;;2.80;0.70;;;25.10;99.90;;;;;;4985164;28;20045;-68
2022/05/15 13:13:01;;;;;;;1.73;0.75;;;25.30;99.90;;;;;;4984068;28;20483;-70
2022/05/15 13:15:30;;;;;;;4.93;0.98;;;25.40;99.90;;;;;;4977524;28;20041;-69
2022/05/15 13:18:00;;;;;;;4.45;1.38;;;25.50;99.90;;;;;;4958413;28;20034;-69
2022/05/15 13:20:28;;;;;;;1.15;0.85;;;25.70;99.90;;;;;;4985842;28;20027;-69
2022/05/15 13:22:54;;;;;;;5.93;1.33;;;25.90;99.90;;;;;;4985458;28;20055;-69
2022/05/15 13:25:37;;;;;;;0.98;0.57;;;26.00;99.90;;;;;;4986071;28;20149;-69